sensor_id;sensor_type;location;lat;lon;timestamp;P1;P2;P0
64861;PMS5003;62652;42.274;-71.436;2022-09-06T00:00:00;5.30;5.17;4.00
64861;PMS5003;62652;42.274;-71.436;2022-09-06T00:01:00;5.10;4.53;3.00
64861;PMS5003;62652;42.274;-71.436;2022-09-06T00:02:00;6.30;5.23;3.93
64861;PMS5003;62652;42.274;-71.436;2022-09-06T00:03:00;6.40;5.57;4.07
64861;PMS5003;62652;42.274;-71.436;2022-09-06T00:04:00;5.57;4.80;4.20
64861;PMS5003;62652;42.274;-71.436;2022-09-06T00:05:00;5.93;5.93;3.83
64861;PMS5003;62652;42.274;-71.436;2022-09-06T00:06:04;4.87;4.73;3.30
64861;PMS5003;62652;42.274;-71.436;2022-09-06T00:07:00;4.93;4.80;3.93
64861;PMS5003;62652;42.274;-71.436;2022-09-06T00:08:01;4.90;4.90;4.00
64861;PMS5003;62652;42.274;-71.436;2022-09-06T00:09:00;4.43;4.43;3.73
64861;PMS5003;62652;42.274;-71.436;2022-09-06T00:10:00;4.77;4.77;3.93
64861;PMS5003;62652;42.274;-71.436;2022-09-06T00:11:00;6.77;6.53;4.53
64861;PMS5003;62652;42.274;-71.436;2022-09-06T00:12:00;6.40;6.30;5.10
64861;PMS5003;62652;42.274;-71.436;2022-09-06T00:13:00;6.40;6.30;4.53
64861;PMS5003;62652;42.274;-71.436;2022-09-06T00:14:00;6.17;5.57;4.53
64861;PMS5003;62652;42.274;-71.436;2022-09-06T00:15:00;5.50;5.20;3.77
64861;PMS5003;62652;42.274;-71.436;2022-09-06T00:16:04;5.17;4.87;3.80
64861;PMS5003;62652;42.274;-71.436;2022-09-06T00:17:00;5.97;5.70;4.17
64861;PMS5003;62652;42.274;-71.436;2022-09-06T00:18:00;5.03;5.03;4.00
64861;PMS5003;62652;42.274;-71.436;2022-09-06T00:19:00;5.97;5.97;4.83
64861;PMS5003;62652;42.274;-71.436;2022-09-06T00:20:00;5.83;5.83;4.73
64861;PMS5003;62652;42.274;-71.436;2022-09-06T00:21:00;5.73;5.73;4.13
64861;PMS5003;62652;42.274;-71.436;2022-09-06T00:22:00;6.23;6.03;4.37
64861;PMS5003;62652;42.274;-71.436;2022-09-06T00:23:00;5.90;5.90;4.57
64861;PMS5003;62652;42.274;-71.436;2022-09-06T00:24:00;6.70;6.00;4.00
64861;PMS5003;62652;42.274;-71.436;2022-09-06T00:25:00;4.33;4.33;3.63
64861;PMS5003;62652;42.274;-71.436;2022-09-06T00:26:00;6.73;5.90;3.83
64861;PMS5003;62652;42.274;-71.436;2022-09-06T00:27:00;4.97;4.23;3.10
64861;PMS5003;62652;42.274;-71.436;2022-09-06T00:28:01;6.00;6.00;4.93
64861;PMS5003;62652;42.274;-71.436;2022-09-06T00:29:00;5.47;5.07;4.00
64861;PMS5003;62652;42.274;-71.436;2022-09-06T00:30:00;4.47;4.37;3.87
64861;PMS5003;62652;42.274;-71.436;2022-09-06T00:31:06;6.67;6.03;4.73
64861;PMS5003;62652;42.274;-71.436;2022-09-06T00:32:00;4.23;4.23;3.43
64861;PMS5003;62652;42.274;-71.436;2022-09-06T00:33:00;5.10;5.10;4.87
64861;PMS5003;62652;42.274;-71.436;2022-09-06T00:34:00;6.17;6.17;4.30
64861;PMS5003;62652;42.274;-71.436;2022-09-06T00:35:00;5.60;5.60;3.93
64861;PMS5003;62652;42.274;-71.436;2022-09-06T00:36:00;5.27;5.27;3.90
64861;PMS5003;62652;42.274;-71.436;2022-09-06T00:37:00;7.10;7.10;6.00
64861;PMS5003;62652;42.274;-71.436;2022-09-06T00:38:00;6.57;6.37;5.13
64861;PMS5003;62652;42.274;-71.436;2022-09-06T00:39:00;5.00;5.00;4.00
64861;PMS5003;62652;42.274;-71.436;2022-09-06T00:40:00;6.00;5.90;4.07
64861;PMS5003;62652;42.274;-71.436;2022-09-06T00:41:00;5.27;5.27;4.33
64861;PMS5003;62652;42.274;-71.436;2022-09-06T00:42:00;6.50;6.50;4.67
64861;PMS5003;62652;42.274;-71.436;2022-09-06T00:43:00;3.97;3.80;3.00
64861;PMS5003;62652;42.274;-71.436;2022-09-06T00:44:00;5.13;4.90;3.90
64861;PMS5003;62652;42.274;-71.436;2022-09-06T00:45:00;5.73;5.57;3.93
64861;PMS5003;62652;42.274;-71.436;2022-09-06T00:46:00;5.80;4.73;3.83
64861;PMS5003;62652;42.274;-71.436;2022-09-06T00:47:00;4.23;4.07;3.30
64861;PMS5003;62652;42.274;-71.436;2022-09-06T00:48:00;4.97;4.97;3.77
64861;PMS5003;62652;42.274;-71.436;2022-09-06T00:49:00;6.63;6.03;5.00
64861;PMS5003;62652;42.274;-71.436;2022-09-06T00:50:00;4.77;4.77;3.97
64861;PMS5003;62652;42.274;-71.436;2022-09-06T00:51:00;5.80;5.73;4.20
64861;PMS5003;62652;42.274;-71.436;2022-09-06T00:52:01;6.40;5.30;3.70
64861;PMS5003;62652;42.274;-71.436;2022-09-06T00:53:00;6.37;5.93;4.07
64861;PMS5003;62652;42.274;-71.436;2022-09-06T00:54:01;6.10;6.10;5.07
64861;PMS5003;62652;42.274;-71.436;2022-09-06T00:55:00;5.87;5.40;4.27
64861;PMS5003;62652;42.274;-71.436;2022-09-06T00:56:00;6.53;6.43;5.43
64861;PMS5003;62652;42.274;-71.436;2022-09-06T00:57:00;5.17;5.17;4.17
64861;PMS5003;62652;42.274;-71.436;2022-09-06T00:58:00;6.47;5.77;4.77
64861;PMS5003;62652;42.274;-71.436;2022-09-06T00:59:00;5.87;5.87;4.47
64861;PMS5003;62652;42.274;-71.436;2022-09-06T01:00:00;6.60;6.47;3.93
64861;PMS5003;62652;42.274;-71.436;2022-09-06T01:01:00;8.00;7.73;5.70
64861;PMS5003;62652;42.274;-71.436;2022-09-06T01:02:00;6.07;6.00;4.40
64861;PMS5003;62652;42.274;-71.436;2022-09-06T01:03:00;5.93;5.93;4.73
64861;PMS5003;62652;42.274;-71.436;2022-09-06T01:04:00;6.07;5.03;4.23
64861;PMS5003;62652;42.274;-71.436;2022-09-06T01:05:00;5.37;5.37;4.53
64861;PMS5003;62652;42.274;-71.436;2022-09-06T01:06:04;5.53;5.53;4.30
64861;PMS5003;62652;42.274;-71.436;2022-09-06T01:07:02;6.20;6.00;4.37
64861;PMS5003;62652;42.274;-71.436;2022-09-06T01:08:03;6.10;6.10;4.13
64861;PMS5003;62652;42.274;-71.436;2022-09-06T01:09:04;6.20;6.20;4.57
64861;PMS5003;62652;42.274;-71.436;2022-09-06T01:10:05;4.90;4.90;4.20
64861;PMS5003;62652;42.274;-71.436;2022-09-06T01:11:04;5.20;4.97;3.97
64861;PMS5003;62652;42.274;-71.436;2022-09-06T01:12:03;6.60;6.30;4.40
64861;PMS5003;62652;42.274;-71.436;2022-09-06T01:13:02;5.90;5.50;3.77
64861;PMS5003;62652;42.274;-71.436;2022-09-06T01:14:04;5.73;5.73;4.33
64861;PMS5003;62652;42.274;-71.436;2022-09-06T01:15:07;5.70;5.70;4.20
64861;PMS5003;62652;42.274;-71.436;2022-09-06T01:16:02;5.73;5.73;4.73
64861;PMS5003;62652;42.274;-71.436;2022-09-06T01:17:02;7.47;7.47;5.20
64861;PMS5003;62652;42.274;-71.436;2022-09-06T01:18:03;5.23;5.20;3.90
64861;PMS5003;62652;42.274;-71.436;2022-09-06T01:19:06;6.27;6.27;4.80
64861;PMS5003;62652;42.274;-71.436;2022-09-06T01:20:09;6.77;5.97;4.30
64861;PMS5003;62652;42.274;-71.436;2022-09-06T01:21:02;6.80;6.80;5.00
64861;PMS5003;62652;42.274;-71.436;2022-09-06T01:22:04;7.23;7.23;6.00
64861;PMS5003;62652;42.274;-71.436;2022-09-06T01:25:03;6.70;6.50;5.20
64861;PMS5003;62652;42.274;-71.436;2022-09-06T01:26:03;7.30;7.30;5.77
64861;PMS5003;62652;42.274;-71.436;2022-09-06T01:27:09;8.10;8.10;6.37
64861;PMS5003;62652;42.274;-71.436;2022-09-06T01:28:02;7.23;6.93;5.50
64861;PMS5003;62652;42.274;-71.436;2022-09-06T01:29:00;7.97;7.97;6.07
64861;PMS5003;62652;42.274;-71.436;2022-09-06T01:30:01;7.17;7.17;5.27
64861;PMS5003;62652;42.274;-71.436;2022-09-06T01:31:03;7.27;7.27;6.00
64861;PMS5003;62652;42.274;-71.436;2022-09-06T01:32:02;7.07;7.07;5.47
64861;PMS5003;62652;42.274;-71.436;2022-09-06T01:33:02;8.57;8.07;6.83
64861;PMS5003;62652;42.274;-71.436;2022-09-06T01:34:10;6.83;6.83;5.63
64861;PMS5003;62652;42.274;-71.436;2022-09-06T01:35:02;8.07;6.93;5.27
64861;PMS5003;62652;42.274;-71.436;2022-09-06T01:36:00;9.03;9.03;5.73
64861;PMS5003;62652;42.274;-71.436;2022-09-06T01:37:00;8.43;8.43;5.90
64861;PMS5003;62652;42.274;-71.436;2022-09-06T01:38:00;9.37;8.90;7.27
64861;PMS5003;62652;42.274;-71.436;2022-09-06T01:39:00;9.07;9.07;7.13
64861;PMS5003;62652;42.274;-71.436;2022-09-06T01:40:00;7.60;7.57;6.07
64861;PMS5003;62652;42.274;-71.436;2022-09-06T01:41:00;9.10;8.20;6.40
64861;PMS5003;62652;42.274;-71.436;2022-09-06T01:42:01;9.83;9.80;7.83
64861;PMS5003;62652;42.274;-71.436;2022-09-06T01:43:00;10.00;9.00;7.00
64861;PMS5003;62652;42.274;-71.436;2022-09-06T01:44:00;9.10;8.73;7.17
64861;PMS5003;62652;42.274;-71.436;2022-09-06T01:45:00;9.77;9.77;6.67
64861;PMS5003;62652;42.274;-71.436;2022-09-06T01:46:01;8.10;8.10;5.43
64861;PMS5003;62652;42.274;-71.436;2022-09-06T01:47:04;8.73;8.73;6.67
64861;PMS5003;62652;42.274;-71.436;2022-09-06T01:48:01;6.07;6.07;4.83
64861;PMS5003;62652;42.274;-71.436;2022-09-06T01:49:06;8.40;8.10;6.60
64861;PMS5003;62652;42.274;-71.436;2022-09-06T01:50:20;8.57;7.93;6.23
64861;PMS5003;62652;42.274;-71.436;2022-09-06T01:51:03;8.07;7.60;6.13
64861;PMS5003;62652;42.274;-71.436;2022-09-06T01:52:03;9.40;9.30;5.77
64861;PMS5003;62652;42.274;-71.436;2022-09-06T01:53:03;8.60;8.07;5.77
64861;PMS5003;62652;42.274;-71.436;2022-09-06T01:54:04;9.37;9.37;6.73
64861;PMS5003;62652;42.274;-71.436;2022-09-06T01:55:04;8.27;8.27;6.00
64861;PMS5003;62652;42.274;-71.436;2022-09-06T01:56:03;9.83;9.43;7.03
64861;PMS5003;62652;42.274;-71.436;2022-09-06T01:57:05;10.37;9.53;7.00
64861;PMS5003;62652;42.274;-71.436;2022-09-06T01:58:05;9.33;8.37;6.93
64861;PMS5003;62652;42.274;-71.436;2022-09-06T01:59:03;9.53;8.83;5.87
64861;PMS5003;62652;42.274;-71.436;2022-09-06T02:00:03;9.23;9.20;7.57
64861;PMS5003;62652;42.274;-71.436;2022-09-06T02:01:01;8.37;7.83;6.40
64861;PMS5003;62652;42.274;-71.436;2022-09-06T02:02:02;9.57;8.67;6.37
64861;PMS5003;62652;42.274;-71.436;2022-09-06T02:03:03;11.97;10.37;8.10
64861;PMS5003;62652;42.274;-71.436;2022-09-06T02:04:01;9.43;8.57;7.13
64861;PMS5003;62652;42.274;-71.436;2022-09-06T02:05:00;9.30;9.20;6.93
64861;PMS5003;62652;42.274;-71.436;2022-09-06T02:06:02;9.17;9.17;7.57
64861;PMS5003;62652;42.274;-71.436;2022-09-06T02:07:00;9.77;9.77;7.77
64861;PMS5003;62652;42.274;-71.436;2022-09-06T02:08:01;9.57;9.57;7.57
64861;PMS5003;62652;42.274;-71.436;2022-09-06T02:09:01;10.53;9.90;7.43
64861;PMS5003;62652;42.274;-71.436;2022-09-06T02:10:02;11.30;10.73;6.97
64861;PMS5003;62652;42.274;-71.436;2022-09-06T02:11:00;8.90;8.50;6.80
64861;PMS5003;62652;42.274;-71.436;2022-09-06T02:12:00;9.30;9.30;6.40
64861;PMS5003;62652;42.274;-71.436;2022-09-06T02:13:00;8.77;8.23;6.60
64861;PMS5003;62652;42.274;-71.436;2022-09-06T02:14:01;9.17;9.17;7.23
64861;PMS5003;62652;42.274;-71.436;2022-09-06T02:15:01;9.47;9.10;7.30
64861;PMS5003;62652;42.274;-71.436;2022-09-06T02:16:01;9.90;9.90;7.37
64861;PMS5003;62652;42.274;-71.436;2022-09-06T02:17:00;10.17;10.17;7.70
64861;PMS5003;62652;42.274;-71.436;2022-09-06T02:18:01;8.40;8.40;6.33
64861;PMS5003;62652;42.274;-71.436;2022-09-06T02:19:02;9.50;8.53;6.60
64861;PMS5003;62652;42.274;-71.436;2022-09-06T02:20:01;10.43;10.43;7.93
64861;PMS5003;62652;42.274;-71.436;2022-09-06T02:21:00;9.63;9.57;7.33
64861;PMS5003;62652;42.274;-71.436;2022-09-06T02:22:00;10.90;10.07;7.97
64861;PMS5003;62652;42.274;-71.436;2022-09-06T02:23:00;10.67;10.67;8.33
64861;PMS5003;62652;42.274;-71.436;2022-09-06T02:24:01;9.10;8.97;7.07
64861;PMS5003;62652;42.274;-71.436;2022-09-06T02:25:00;12.23;12.23;9.57
64861;PMS5003;62652;42.274;-71.436;2022-09-06T02:26:01;11.00;10.80;8.03
64861;PMS5003;62652;42.274;-71.436;2022-09-06T02:27:00;11.47;11.27;8.00
64861;PMS5003;62652;42.274;-71.436;2022-09-06T02:28:00;11.80;10.87;8.77
64861;PMS5003;62652;42.274;-71.436;2022-09-06T02:29:00;9.67;9.67;8.13
64861;PMS5003;62652;42.274;-71.436;2022-09-06T02:30:00;11.80;10.77;7.83
64861;PMS5003;62652;42.274;-71.436;2022-09-06T02:31:01;10.53;9.93;7.90
64861;PMS5003;62652;42.274;-71.436;2022-09-06T02:32:00;8.13;7.47;6.07
64861;PMS5003;62652;42.274;-71.436;2022-09-06T02:33:01;8.97;8.93;7.00
64861;PMS5003;62652;42.274;-71.436;2022-09-06T02:34:00;8.43;8.43;7.23
64861;PMS5003;62652;42.274;-71.436;2022-09-06T02:35:04;8.40;8.37;6.47
64861;PMS5003;62652;42.274;-71.436;2022-09-06T02:36:02;10.30;9.87;7.07
64861;PMS5003;62652;42.274;-71.436;2022-09-06T02:37:00;10.20;10.10;7.53
64861;PMS5003;62652;42.274;-71.436;2022-09-06T02:38:00;12.00;11.90;8.77
64861;PMS5003;62652;42.274;-71.436;2022-09-06T02:39:00;10.70;10.13;7.50
64861;PMS5003;62652;42.274;-71.436;2022-09-06T02:40:00;13.10;11.63;8.00
64861;PMS5003;62652;42.274;-71.436;2022-09-06T02:41:00;10.27;10.27;7.30
64861;PMS5003;62652;42.274;-71.436;2022-09-06T02:42:00;10.10;9.60;6.93
64861;PMS5003;62652;42.274;-71.436;2022-09-06T02:43:00;9.80;9.73;6.90
64861;PMS5003;62652;42.274;-71.436;2022-09-06T02:44:00;10.47;10.43;7.37
64861;PMS5003;62652;42.274;-71.436;2022-09-06T02:45:00;12.33;12.33;9.43
64861;PMS5003;62652;42.274;-71.436;2022-09-06T02:46:00;12.93;12.93;7.90
64861;PMS5003;62652;42.274;-71.436;2022-09-06T02:47:00;11.17;11.17;9.00
64861;PMS5003;62652;42.274;-71.436;2022-09-06T02:48:00;10.33;10.33;8.00
64861;PMS5003;62652;42.274;-71.436;2022-09-06T02:49:00;13.13;12.43;8.40
64861;PMS5003;62652;42.274;-71.436;2022-09-06T02:50:00;14.40;14.40;10.13
64861;PMS5003;62652;42.274;-71.436;2022-09-06T02:51:01;12.03;11.83;8.57
64861;PMS5003;62652;42.274;-71.436;2022-09-06T02:52:00;13.17;12.87;8.77
64861;PMS5003;62652;42.274;-71.436;2022-09-06T02:53:01;12.47;12.10;7.93
64861;PMS5003;62652;42.274;-71.436;2022-09-06T02:54:00;12.70;12.03;8.87
64861;PMS5003;62652;42.274;-71.436;2022-09-06T02:55:00;9.57;9.57;7.27
64861;PMS5003;62652;42.274;-71.436;2022-09-06T02:56:00;11.40;11.23;7.80
64861;PMS5003;62652;42.274;-71.436;2022-09-06T02:57:00;13.73;13.43;9.40
64861;PMS5003;62652;42.274;-71.436;2022-09-06T02:58:00;9.53;8.93;6.30
64861;PMS5003;62652;42.274;-71.436;2022-09-06T02:59:00;12.37;11.73;9.83
64861;PMS5003;62652;42.274;-71.436;2022-09-06T03:00:00;10.13;9.67;7.47
64861;PMS5003;62652;42.274;-71.436;2022-09-06T03:01:00;11.13;10.43;7.77
64861;PMS5003;62652;42.274;-71.436;2022-09-06T03:02:00;11.07;11.07;7.93
64861;PMS5003;62652;42.274;-71.436;2022-09-06T03:03:00;10.90;10.60;7.80
64861;PMS5003;62652;42.274;-71.436;2022-09-06T03:04:00;11.97;11.77;8.20
64861;PMS5003;62652;42.274;-71.436;2022-09-06T03:05:00;11.10;11.10;8.07
64861;PMS5003;62652;42.274;-71.436;2022-09-06T03:06:00;9.80;9.77;7.10
64861;PMS5003;62652;42.274;-71.436;2022-09-06T03:07:00;12.23;11.70;8.70
64861;PMS5003;62652;42.274;-71.436;2022-09-06T03:08:00;10.37;10.37;6.77
64861;PMS5003;62652;42.274;-71.436;2022-09-06T03:09:00;13.77;11.60;7.60
64861;PMS5003;62652;42.274;-71.436;2022-09-06T03:10:00;11.97;11.07;8.27
64861;PMS5003;62652;42.274;-71.436;2022-09-06T03:11:00;10.10;9.87;7.93
64861;PMS5003;62652;42.274;-71.436;2022-09-06T03:12:00;10.03;10.03;8.07
64861;PMS5003;62652;42.274;-71.436;2022-09-06T03:13:00;11.17;10.40;8.03
64861;PMS5003;62652;42.274;-71.436;2022-09-06T03:14:00;11.73;10.93;7.83
64861;PMS5003;62652;42.274;-71.436;2022-09-06T03:15:00;10.77;10.77;7.37
64861;PMS5003;62652;42.274;-71.436;2022-09-06T03:16:00;10.10;10.10;7.13
64861;PMS5003;62652;42.274;-71.436;2022-09-06T03:17:00;9.20;9.20;6.70
64861;PMS5003;62652;42.274;-71.436;2022-09-06T03:18:00;8.77;8.57;6.57
64861;PMS5003;62652;42.274;-71.436;2022-09-06T03:19:00;8.27;8.07;5.77
64861;PMS5003;62652;42.274;-71.436;2022-09-06T03:20:00;9.53;9.17;6.83
64861;PMS5003;62652;42.274;-71.436;2022-09-06T03:21:00;7.07;7.07;5.53
64861;PMS5003;62652;42.274;-71.436;2022-09-06T03:22:00;8.60;8.30;6.17
64861;PMS5003;62652;42.274;-71.436;2022-09-06T03:23:00;9.33;9.00;6.47
64861;PMS5003;62652;42.274;-71.436;2022-09-06T03:24:00;7.83;7.23;5.17
64861;PMS5003;62652;42.274;-71.436;2022-09-06T03:25:00;4.17;4.17;3.17
64861;PMS5003;62652;42.274;-71.436;2022-09-06T03:26:00;5.80;5.73;4.63
64861;PMS5003;62652;42.274;-71.436;2022-09-06T03:27:00;4.90;4.90;3.80
64861;PMS5003;62652;42.274;-71.436;2022-09-06T03:28:00;6.47;6.17;4.00
64861;PMS5003;62652;42.274;-71.436;2022-09-06T03:29:00;4.13;4.13;3.20
64861;PMS5003;62652;42.274;-71.436;2022-09-06T03:30:00;4.30;3.80;3.00
64861;PMS5003;62652;42.274;-71.436;2022-09-06T03:31:00;5.17;4.93;3.67
64861;PMS5003;62652;42.274;-71.436;2022-09-06T03:32:00;4.57;4.37;3.83
64861;PMS5003;62652;42.274;-71.436;2022-09-06T03:33:00;3.27;3.27;2.33
64861;PMS5003;62652;42.274;-71.436;2022-09-06T03:34:00;4.77;4.73;3.63
64861;PMS5003;62652;42.274;-71.436;2022-09-06T03:35:00;5.03;5.03;4.03
64861;PMS5003;62652;42.274;-71.436;2022-09-06T03:36:00;4.37;4.37;3.23
64861;PMS5003;62652;42.274;-71.436;2022-09-06T03:37:00;5.13;5.00;4.00
64861;PMS5003;62652;42.274;-71.436;2022-09-06T03:38:00;4.50;4.50;3.70
64861;PMS5003;62652;42.274;-71.436;2022-09-06T03:39:00;3.70;3.70;2.47
64861;PMS5003;62652;42.274;-71.436;2022-09-06T03:40:00;4.83;4.83;4.00
64861;PMS5003;62652;42.274;-71.436;2022-09-06T03:41:00;5.60;5.23;3.53
64861;PMS5003;62652;42.274;-71.436;2022-09-06T03:42:00;4.63;4.63;3.80
64861;PMS5003;62652;42.274;-71.436;2022-09-06T03:43:00;4.57;3.83;3.00
64861;PMS5003;62652;42.274;-71.436;2022-09-06T03:44:00;4.17;4.17;3.03
64861;PMS5003;62652;42.274;-71.436;2022-09-06T03:45:00;5.40;5.40;4.50
64861;PMS5003;62652;42.274;-71.436;2022-09-06T03:46:00;4.40;3.83;2.70
64861;PMS5003;62652;42.274;-71.436;2022-09-06T03:47:00;4.57;4.57;3.00
64861;PMS5003;62652;42.274;-71.436;2022-09-06T03:48:00;4.47;4.20;2.00
64861;PMS5003;62652;42.274;-71.436;2022-09-06T03:49:00;4.20;4.20;2.77
64861;PMS5003;62652;42.274;-71.436;2022-09-06T03:50:00;3.30;3.30;2.33
64861;PMS5003;62652;42.274;-71.436;2022-09-06T03:51:00;4.47;4.17;3.03
64861;PMS5003;62652;42.274;-71.436;2022-09-06T03:52:00;3.63;3.63;2.73
64861;PMS5003;62652;42.274;-71.436;2022-09-06T03:53:00;3.87;3.37;2.77
64861;PMS5003;62652;42.274;-71.436;2022-09-06T03:54:00;4.63;3.77;2.70
64861;PMS5003;62652;42.274;-71.436;2022-09-06T03:55:00;4.00;3.73;2.43
64861;PMS5003;62652;42.274;-71.436;2022-09-06T03:56:00;3.70;3.70;2.60
64861;PMS5003;62652;42.274;-71.436;2022-09-06T03:57:00;4.50;4.50;3.13
64861;PMS5003;62652;42.274;-71.436;2022-09-06T03:58:00;3.90;3.73;2.67
64861;PMS5003;62652;42.274;-71.436;2022-09-06T03:59:00;4.13;3.97;2.90
64861;PMS5003;62652;42.274;-71.436;2022-09-06T04:00:00;3.70;3.70;2.87
64861;PMS5003;62652;42.274;-71.436;2022-09-06T04:01:01;3.23;3.23;2.03
64861;PMS5003;62652;42.274;-71.436;2022-09-06T04:02:00;4.37;4.13;3.37
64861;PMS5003;62652;42.274;-71.436;2022-09-06T04:03:00;4.57;4.57;3.10
64861;PMS5003;62652;42.274;-71.436;2022-09-06T04:04:00;5.10;5.10;3.77
64861;PMS5003;62652;42.274;-71.436;2022-09-06T04:05:00;4.63;4.30;3.13
64861;PMS5003;62652;42.274;-71.436;2022-09-06T04:06:00;4.77;4.77;3.63
64861;PMS5003;62652;42.274;-71.436;2022-09-06T04:07:00;4.47;4.43;3.40
64861;PMS5003;62652;42.274;-71.436;2022-09-06T04:08:00;4.57;3.70;2.17
64861;PMS5003;62652;42.274;-71.436;2022-09-06T04:09:00;4.53;4.30;3.00
64861;PMS5003;62652;42.274;-71.436;2022-09-06T04:10:00;3.40;3.40;2.40
64861;PMS5003;62652;42.274;-71.436;2022-09-06T04:11:00;4.30;4.17;3.00
64861;PMS5003;62652;42.274;-71.436;2022-09-06T04:12:00;3.47;3.47;2.97
64861;PMS5003;62652;42.274;-71.436;2022-09-06T04:13:00;3.57;3.57;2.67
64861;PMS5003;62652;42.274;-71.436;2022-09-06T04:14:00;3.93;3.87;2.57
64861;PMS5003;62652;42.274;-71.436;2022-09-06T04:15:00;3.07;3.00;1.93
64861;PMS5003;62652;42.274;-71.436;2022-09-06T04:16:00;2.27;2.27;1.43
64861;PMS5003;62652;42.274;-71.436;2022-09-06T04:17:00;2.90;2.90;1.87
64861;PMS5003;62652;42.274;-71.436;2022-09-06T04:18:00;4.77;4.07;2.60
64861;PMS5003;62652;42.274;-71.436;2022-09-06T04:19:00;3.93;3.93;3.13
64861;PMS5003;62652;42.274;-71.436;2022-09-06T04:20:00;5.57;5.57;4.33
64861;PMS5003;62652;42.274;-71.436;2022-09-06T04:21:00;4.90;4.30;3.00
64861;PMS5003;62652;42.274;-71.436;2022-09-06T04:22:00;4.33;4.33;3.43
64861;PMS5003;62652;42.274;-71.436;2022-09-06T04:23:00;4.17;3.30;2.40
64861;PMS5003;62652;42.274;-71.436;2022-09-06T04:24:00;3.00;3.00;2.50
64861;PMS5003;62652;42.274;-71.436;2022-09-06T04:25:00;2.50;2.50;2.27
64861;PMS5003;62652;42.274;-71.436;2022-09-06T04:26:00;4.13;4.00;3.00
64861;PMS5003;62652;42.274;-71.436;2022-09-06T04:27:00;4.83;4.10;3.00
64861;PMS5003;62652;42.274;-71.436;2022-09-06T04:28:00;3.43;3.43;2.17
64861;PMS5003;62652;42.274;-71.436;2022-09-06T04:29:00;2.53;2.13;1.83
64861;PMS5003;62652;42.274;-71.436;2022-09-06T04:30:00;3.80;3.23;2.00
64861;PMS5003;62652;42.274;-71.436;2022-09-06T04:31:00;2.83;2.50;1.67
64861;PMS5003;62652;42.274;-71.436;2022-09-06T04:32:00;3.30;2.97;2.20
64861;PMS5003;62652;42.274;-71.436;2022-09-06T04:33:00;4.50;3.47;2.23
64861;PMS5003;62652;42.274;-71.436;2022-09-06T04:34:00;2.40;2.37;2.17
64861;PMS5003;62652;42.274;-71.436;2022-09-06T04:35:00;2.43;2.43;2.00
64861;PMS5003;62652;42.274;-71.436;2022-09-06T04:36:00;3.53;2.90;2.10
64861;PMS5003;62652;42.274;-71.436;2022-09-06T04:37:00;2.57;2.57;1.70
64861;PMS5003;62652;42.274;-71.436;2022-09-06T04:38:00;2.50;2.50;2.00
64861;PMS5003;62652;42.274;-71.436;2022-09-06T04:39:00;3.13;2.73;1.60
64861;PMS5003;62652;42.274;-71.436;2022-09-06T04:40:00;2.53;2.53;1.90
64861;PMS5003;62652;42.274;-71.436;2022-09-06T04:41:00;2.93;2.03;1.43
64861;PMS5003;62652;42.274;-71.436;2022-09-06T04:42:00;2.10;2.10;1.87
64861;PMS5003;62652;42.274;-71.436;2022-09-06T04:43:00;2.70;2.47;1.77
64861;PMS5003;62652;42.274;-71.436;2022-09-06T04:44:00;3.27;2.43;1.93
64861;PMS5003;62652;42.274;-71.436;2022-09-06T04:45:00;1.83;1.83;1.13
64861;PMS5003;62652;42.274;-71.436;2022-09-06T04:46:02;2.07;2.07;1.50
64861;PMS5003;62652;42.274;-71.436;2022-09-06T04:47:02;2.27;2.27;2.00
64861;PMS5003;62652;42.274;-71.436;2022-09-06T04:48:00;1.47;1.47;1.20
64861;PMS5003;62652;42.274;-71.436;2022-09-06T04:49:00;2.73;2.73;1.83
64861;PMS5003;62652;42.274;-71.436;2022-09-06T04:50:00;2.53;2.00;1.63
64861;PMS5003;62652;42.274;-71.436;2022-09-06T04:51:00;2.10;2.00;1.37
64861;PMS5003;62652;42.274;-71.436;2022-09-06T04:52:00;2.50;2.00;1.10
64861;PMS5003;62652;42.274;-71.436;2022-09-06T04:53:00;1.13;1.13;0.33
64861;PMS5003;62652;42.274;-71.436;2022-09-06T04:54:00;3.57;3.20;2.93
64861;PMS5003;62652;42.274;-71.436;2022-09-06T04:55:00;2.63;2.33;1.90
64861;PMS5003;62652;42.274;-71.436;2022-09-06T04:56:00;2.03;2.00;1.63
64861;PMS5003;62652;42.274;-71.436;2022-09-06T04:57:00;3.33;2.87;2.53
64861;PMS5003;62652;42.274;-71.436;2022-09-06T04:58:00;1.70;1.70;1.00
64861;PMS5003;62652;42.274;-71.436;2022-09-06T04:59:00;3.17;2.47;1.97
64861;PMS5003;62652;42.274;-71.436;2022-09-06T05:00:00;2.27;1.97;1.37
64861;PMS5003;62652;42.274;-71.436;2022-09-06T05:01:00;2.03;2.03;1.53
64861;PMS5003;62652;42.274;-71.436;2022-09-06T05:02:00;1.97;1.87;1.87
64861;PMS5003;62652;42.274;-71.436;2022-09-06T05:03:00;2.53;2.03;1.53
64861;PMS5003;62652;42.274;-71.436;2022-09-06T05:04:00;3.10;2.87;2.07
64861;PMS5003;62652;42.274;-71.436;2022-09-06T05:05:00;1.70;1.63;1.37
64861;PMS5003;62652;42.274;-71.436;2022-09-06T05:06:04;2.80;2.80;1.83
64861;PMS5003;62652;42.274;-71.436;2022-09-06T05:07:00;2.27;2.27;1.63
64861;PMS5003;62652;42.274;-71.436;2022-09-06T05:08:00;3.07;3.07;1.97
64861;PMS5003;62652;42.274;-71.436;2022-09-06T05:09:00;2.97;2.53;1.53
64861;PMS5003;62652;42.274;-71.436;2022-09-06T05:10:00;3.00;2.83;2.23
64861;PMS5003;62652;42.274;-71.436;2022-09-06T05:11:00;1.50;1.50;0.60
64861;PMS5003;62652;42.274;-71.436;2022-09-06T05:12:00;2.43;2.43;2.00
64861;PMS5003;62652;42.274;-71.436;2022-09-06T05:13:00;1.70;1.70;1.40
64861;PMS5003;62652;42.274;-71.436;2022-09-06T05:14:00;3.53;3.53;2.80
64861;PMS5003;62652;42.274;-71.436;2022-09-06T05:15:00;2.53;2.53;1.90
64861;PMS5003;62652;42.274;-71.436;2022-09-06T05:16:00;2.93;2.43;2.00
64861;PMS5003;62652;42.274;-71.436;2022-09-06T05:17:00;2.83;2.83;1.93
64861;PMS5003;62652;42.274;-71.436;2022-09-06T05:18:00;3.60;3.60;2.87
64861;PMS5003;62652;42.274;-71.436;2022-09-06T05:19:00;3.20;3.00;2.30
64861;PMS5003;62652;42.274;-71.436;2022-09-06T05:20:00;4.73;4.30;3.00
64861;PMS5003;62652;42.274;-71.436;2022-09-06T05:21:00;4.27;3.53;2.13
64861;PMS5003;62652;42.274;-71.436;2022-09-06T05:22:00;3.50;3.50;2.60
64861;PMS5003;62652;42.274;-71.436;2022-09-06T05:23:00;3.07;3.07;2.13
64861;PMS5003;62652;42.274;-71.436;2022-09-06T05:24:00;3.93;3.33;1.97
64861;PMS5003;62652;42.274;-71.436;2022-09-06T05:25:00;2.67;2.67;2.00
64861;PMS5003;62652;42.274;-71.436;2022-09-06T05:26:00;3.23;3.23;2.47
64861;PMS5003;62652;42.274;-71.436;2022-09-06T05:27:00;2.83;2.83;1.87
64861;PMS5003;62652;42.274;-71.436;2022-09-06T05:28:00;4.50;4.40;2.87
64861;PMS5003;62652;42.274;-71.436;2022-09-06T05:29:00;3.13;2.80;2.00
64861;PMS5003;62652;42.274;-71.436;2022-09-06T05:30:00;3.17;3.17;2.47
64861;PMS5003;62652;42.274;-71.436;2022-09-06T05:31:08;3.50;2.80;1.87
64861;PMS5003;62652;42.274;-71.436;2022-09-06T05:32:00;4.40;4.20;3.30
64861;PMS5003;62652;42.274;-71.436;2022-09-06T05:33:00;2.97;2.97;2.73
64861;PMS5003;62652;42.274;-71.436;2022-09-06T05:34:00;2.43;2.33;1.63
64861;PMS5003;62652;42.274;-71.436;2022-09-06T05:35:00;3.80;3.80;2.90
64861;PMS5003;62652;42.274;-71.436;2022-09-06T05:36:00;3.53;3.53;2.80
64861;PMS5003;62652;42.274;-71.436;2022-09-06T05:37:00;4.63;4.10;3.10
64861;PMS5003;62652;42.274;-71.436;2022-09-06T05:38:00;4.50;4.00;2.90
64861;PMS5003;62652;42.274;-71.436;2022-09-06T05:39:00;5.57;5.53;3.73
64861;PMS5003;62652;42.274;-71.436;2022-09-06T05:40:00;3.87;3.47;2.57
64861;PMS5003;62652;42.274;-71.436;2022-09-06T05:41:00;3.67;3.47;3.00